Time;durP1;ratioP1;P1;durP2;ratioP2;P2;SDS_P1;SDS_P2;PMS_P1;PMS_P2;Temp;Humidity;BMP_temperature;BMP_pressure;BME280_temperature;BME280_humidity;BME280_pressure;Samples;Min_cycle;Max_cycle;Signal;HPM_P1;HPM_P2
2022/01/08 00:01:46;;;;;;;1.27;0.63;;;19.20;35.20;;;;;;5150070;27;46817;-15
2022/01/08 00:04:12;;;;;;;0.50;0.50;;;19.20;35.20;;;;;;5150033;27;46921;-15
2022/01/08 00:06:39;;;;;;;0.63;0.60;;;19.10;35.30;;;;;;5150130;27;46746;-15
2022/01/08 00:09:06;;;;;;;0.55;0.55;;;19.10;35.30;;;;;;5149687;27;49027;-15
2022/01/08 00:11:34;;;;;;;0.55;0.55;;;19.10;35.40;;;;;;5149666;27;46790;-15
2022/01/08 00:14:04;;;;;;;2.33;0.80;;;19.10;35.50;;;;;;5149968;27;46856;-15
2022/01/08 00:16:33;;;;;;;0.52;0.50;;;19.00;35.50;;;;;;5149883;27;46893;-14
2022/01/08 00:19:01;;;;;;;0.73;0.65;;;18.90;35.50;;;;;;5149577;27;48091;-15
2022/01/08 00:21:27;;;;;;;0.95;0.70;;;18.90;35.60;;;;;;5149210;27;47012;-15
2022/01/08 00:23:54;;;;;;;0.63;0.63;;;18.90;35.70;;;;;;5149932;27;46863;-14
2022/01/08 00:26:21;;;;;;;0.52;0.40;;;18.80;35.80;;;;;;5149102;27;46918;-15
2022/01/08 00:28:47;;;;;;;0.68;0.68;;;18.80;35.90;;;;;;5148600;27;48869;-15
2022/01/08 00:31:14;;;;;;;0.60;0.60;;;18.70;36.00;;;;;;5149542;27;47439;-15
2022/01/08 00:33:41;;;;;;;0.60;0.60;;;18.60;36.10;;;;;;5149669;27;46933;-15
2022/01/08 00:36:09;;;;;;;0.40;0.40;;;18.60;36.20;;;;;;5149637;27;47157;-14
2022/01/08 00:38:36;;;;;;;0.50;0.50;;;18.60;36.20;;;;;;5149417;27;46872;-15
2022/01/08 00:41:02;;;;;;;0.90;0.65;;;18.50;36.30;;;;;;5149077;27;47069;-15
2022/01/08 00:43:29;;;;;;;0.60;0.60;;;18.40;36.30;;;;;;5149213;27;46807;-15
2022/01/08 00:45:56;;;;;;;0.50;0.50;;;18.40;36.40;;;;;;5149560;27;47123;-15
2022/01/08 00:48:22;;;;;;;0.63;0.55;;;18.40;36.60;;;;;;5149212;27;48141;-14
2022/01/08 00:50:50;;;;;;;0.57;0.57;;;18.30;36.60;;;;;;5148888;27;46911;-15
2022/01/08 00:53:18;;;;;;;0.73;0.73;;;18.30;36.70;;;;;;5149143;27;46825;-15
2022/01/08 00:55:44;;;;;;;1.25;0.50;;;18.30;36.70;;;;;;5149128;27;46888;-15
2022/01/08 00:58:11;;;;;;;1.77;0.60;;;18.40;36.60;;;;;;5149278;27;48880;-15
2022/01/08 01:00:38;;;;;;;0.40;0.40;;;18.50;36.50;;;;;;5148980;27;46808;-15
2022/01/08 01:03:05;;;;;;;0.95;0.70;;;18.60;36.50;;;;;;5148971;27;46945;-15
2022/01/08 01:05:31;;;;;;;0.70;0.70;;;18.70;36.30;;;;;;5149214;27;46995;-14
2022/01/08 01:07:58;;;;;;;0.40;0.40;;;18.70;36.10;;;;;;5148939;27;48264;-14
2022/01/08 01:10:26;;;;;;;0.50;0.50;;;18.80;35.90;;;;;;5148851;27;46878;-14
2022/01/08 01:12:53;;;;;;;1.17;0.70;;;18.90;35.80;;;;;;5149044;27;46966;-15
2022/01/08 01:15:20;;;;;;;0.60;0.60;;;18.90;35.70;;;;;;5149079;27;46899;-14
2022/01/08 01:17:47;;;;;;;0.85;0.55;;;19.00;35.70;;;;;;5149181;27;46811;-15
2022/01/08 01:20:15;;;;;;;0.60;0.60;;;19.00;35.70;;;;;;5148579;27;46902;-14
2022/01/08 01:22:50;;;;;;;0.82;0.60;;;19.00;35.70;;;;;;5148930;27;46845;-16
2022/01/08 01:25:22;;;;;;;0.50;0.50;;;19.00;35.70;;;;;;5148686;27;46887;-15
2022/01/08 01:30:57;;;;;;;0.40;0.40;;;18.90;35.60;;;;;;5144764;27;46946;-15
2022/01/08 01:41:49;;;;;;;0.40;0.40;;;18.80;35.90;;;;;;5147681;27;47024;-15
2022/01/08 01:47:02;;;;;;;0.75;0.40;;;18.70;36.10;;;;;;5148553;27;46962;-14
2022/01/08 01:49:29;;;;;;;0.50;0.50;;;18.70;36.20;;;;;;5148357;27;47792;-15
2022/01/08 01:51:56;;;;;;;0.70;0.50;;;18.70;36.30;;;;;;5148141;27;46942;-15
2022/01/08 01:54:23;;;;;;;0.55;0.45;;;18.60;36.30;;;;;;5148346;27;46934;-15
2022/01/08 01:56:50;;;;;;;1.25;0.50;;;18.60;36.40;;;;;;5148231;27;47130;-16
2022/01/08 01:59:18;;;;;;;0.50;0.50;;;18.50;36.40;;;;;;5147849;27;46814;-14
2022/01/08 02:01:44;;;;;;;0.85;0.30;;;18.50;37.10;;;;;;5147932;27;46753;-15
2022/01/08 02:04:11;;;;;;;0.47;0.40;;;18.50;36.60;;;;;;5148298;27;46960;-15
2022/01/08 02:06:38;;;;;;;0.70;0.40;;;18.50;36.80;;;;;;5148172;27;47019;-14
2022/01/08 02:09:04;;;;;;;0.40;0.40;;;18.40;36.80;;;;;;5147925;27;47062;-14
2022/01/08 02:11:31;;;;;;;0.55;0.50;;;18.40;36.90;;;;;;5147837;27;46827;-15
2022/01/08 02:14:02;;;;;;;0.75;0.63;;;18.30;36.90;;;;;;5147804;27;46810;-14
2022/01/08 02:16:31;;;;;;;0.40;0.40;;;18.30;37.00;;;;;;5148111;27;46959;-14
2022/01/08 02:18:57;;;;;;;0.80;0.50;;;18.20;37.10;;;;;;5147628;27;46928;-14
2022/01/08 02:21:26;;;;;;;0.57;0.57;;;18.20;37.20;;;;;;5147906;27;47006;-14
2022/01/08 02:23:53;;;;;;;0.50;0.50;;;18.20;37.20;;;;;;5147921;27;46893;-16
2022/01/08 02:26:19;;;;;;;0.63;0.63;;;18.10;37.30;;;;;;5147449;27;46893;-14
2022/01/08 02:28:46;;;;;;;0.57;0.40;;;18.20;37.40;;;;;;5147614;27;48123;-14
2022/01/08 02:31:21;;;;;;;0.50;0.50;;;18.30;37.30;;;;;;5147386;27;47468;-14
2022/01/08 02:33:48;;;;;;;0.47;0.40;;;18.30;37.00;;;;;;5147788;27;46922;-18
2022/01/08 02:36:15;;;;;;;0.73;0.30;;;18.40;36.90;;;;;;5147966;27;46813;-14
2022/01/08 02:38:43;;;;;;;0.30;0.30;;;18.50;36.70;;;;;;5147661;27;49193;-16
2022/01/08 02:41:10;;;;;;;0.40;0.40;;;18.70;36.50;;;;;;5147430;27;46898;-15
2022/01/08 02:43:43;;;;;;;0.50;0.30;;;18.80;36.20;;;;;;5147286;27;46828;-14
2022/01/08 02:46:10;;;;;;;0.50;0.47;;;18.90;36.00;;;;;;5147392;27;47306;-15
2022/01/08 02:48:37;;;;;;;0.52;0.40;;;18.90;35.90;;;;;;5147306;27;47805;-15
2022/01/08 02:51:03;;;;;;;0.45;0.45;;;19.00;35.80;;;;;;5146222;27;46874;-14
2022/01/08 02:53:30;;;;;;;0.73;0.55;;;19.00;35.70;;;;;;5147215;27;46876;-14
2022/01/08 02:55:58;;;;;;;0.60;0.25;;;19.00;35.70;;;;;;5147269;27;46844;-14
2022/01/08 02:58:26;;;;;;;0.40;0.35;;;19.10;35.70;;;;;;5147276;27;48198;-14
2022/01/08 03:00:53;;;;;;;0.38;0.38;;;19.00;35.70;;;;;;5146856;27;47204;-16
2022/01/08 03:03:19;;;;;;;0.65;0.40;;;19.00;35.70;;;;;;5147487;27;46833;-15
2022/01/08 03:05:46;;;;;;;0.75;0.60;;;19.00;35.70;;;;;;5147396;27;47198;-15
2022/01/08 03:08:13;;;;;;;0.40;0.40;;;19.00;35.80;;;;;;5147120;27;48124;-14
2022/01/08 03:10:39;;;;;;;0.45;0.40;;;19.00;35.80;;;;;;5146710;27;46900;-14
2022/01/08 03:13:07;;;;;;;0.38;0.38;;;18.90;35.80;;;;;;5146946;27;46969;-15
2022/01/08 03:15:36;;;;;;;0.30;0.30;;;18.90;35.90;;;;;;5147460;27;47014;-14
2022/01/08 03:18:02;;;;;;;0.50;0.50;;;18.80;35.90;;;;;;5147180;27;49046;-15
2022/01/08 03:20:29;;;;;;;0.63;0.40;;;18.80;36.00;;;;;;5146878;27;47103;-14
2022/01/08 03:23:02;;;;;;;0.30;0.30;;;18.80;36.10;;;;;;5147014;27;46965;-15
2022/01/08 03:25:29;;;;;;;0.55;0.30;;;18.80;36.20;;;;;;5146510;27;46848;-14
2022/01/08 03:27:56;;;;;;;0.38;0.30;;;18.70;36.20;;;;;;5146537;27;46901;-16
2022/01/08 03:30:24;;;;;;;0.40;0.40;;;18.70;36.30;;;;;;5146688;27;46996;-14
2022/01/08 03:32:52;;;;;;;0.40;0.40;;;18.60;36.40;;;;;;5146757;27;46874;-15
2022/01/08 03:35:19;;;;;;;0.40;0.40;;;18.60;36.50;;;;;;5146824;27;47289;-14
2022/01/08 03:37:47;;;;;;;0.30;0.30;;;18.50;36.50;;;;;;5146769;27;46953;-14
2022/01/08 03:40:14;;;;;;;0.63;0.40;;;18.50;36.80;;;;;;5146527;27;46834;-15
2022/01/08 03:42:41;;;;;;;0.90;0.30;;;18.40;36.70;;;;;;5146923;27;46807;-15
2022/01/08 03:45:08;;;;;;;0.40;0.40;;;18.40;36.80;;;;;;5146704;27;47170;-15
2022/01/08 03:47:54;;;;;;;0.57;0.50;;;18.30;36.90;;;;;;5146546;27;47851;-14
2022/01/08 03:50:21;;;;;;;0.30;0.30;;;18.30;37.00;;;;;;5146371;27;46962;-14
2022/01/08 03:52:50;;;;;;;0.20;0.20;;;18.30;37.10;;;;;;5146943;27;47029;-15
2022/01/08 03:55:16;;;;;;;0.43;0.43;;;18.30;37.00;;;;;;5146379;27;46871;-15
2022/01/08 03:57:43;;;;;;;0.40;0.40;;;18.40;36.90;;;;;;5146460;27;47848;-15
2022/01/08 04:00:11;;;;;;;0.43;0.43;;;18.40;36.70;;;;;;5146477;27;47406;-14
2022/01/08 04:02:39;;;;;;;0.50;0.43;;;18.60;36.60;;;;;;5146323;27;47018;-14
2022/01/08 04:05:06;;;;;;;0.40;0.40;;;18.60;36.30;;;;;;5149753;27;46877;-15
2022/01/08 04:07:33;;;;;;;0.40;0.40;;;18.70;36.20;;;;;;5149600;27;48199;-15
2022/01/08 04:10:00;;;;;;;0.30;0.30;;;18.80;36.10;;;;;;5149628;27;47057;-15
2022/01/08 04:12:34;;;;;;;0.22;0.22;;;18.90;36.00;;;;;;5149583;27;46876;-14
2022/01/08 04:15:08;;;;;;;0.40;0.40;;;19.00;35.90;;;;;;5150386;27;46897;-14
2022/01/08 04:17:35;;;;;;;0.32;0.30;;;19.00;35.80;;;;;;5149894;27;46996;-15
2022/01/08 04:20:03;;;;;;;0.55;0.40;;;19.10;35.70;;;;;;5149578;27;46903;-15
2022/01/08 04:22:30;;;;;;;0.30;0.30;;;19.10;35.70;;;;;;5149576;27;46804;-15
2022/01/08 04:24:57;;;;;;;0.30;0.30;;;19.10;35.70;;;;;;5149587;27;47153;-15
2022/01/08 04:27:24;;;;;;;0.38;0.30;;;19.10;35.70;;;;;;5149654;27;48056;-15
2022/01/08 04:29:51;;;;;;;0.30;0.30;;;19.10;35.70;;;;;;5149607;27;47195;-14
2022/01/08 04:32:17;;;;;;;0.40;0.40;;;19.00;35.70;;;;;;5149492;27;46887;-16
2022/01/08 04:34:44;;;;;;;0.35;0.20;;;19.00;35.70;;;;;;5149896;27;47279;-15
2022/01/08 04:37:12;;;;;;;0.22;0.22;;;19.00;35.80;;;;;;5149548;27;47888;-14
2022/01/08 04:39:39;;;;;;;0.40;0.25;;;18.90;35.80;;;;;;5149493;27;47117;-14
2022/01/08 04:42:05;;;;;;;0.57;0.50;;;18.90;35.90;;;;;;5149570;27;46852;-14
2022/01/08 04:44:32;;;;;;;0.30;0.30;;;18.80;36.00;;;;;;5149782;27;46884;-16
2022/01/08 04:46:59;;;;;;;0.50;0.50;;;18.90;36.10;;;;;;5149121;27;48779;-14
2022/01/08 04:49:25;;;;;;;0.32;0.32;;;18.80;36.20;;;;;;5149287;27;47305;-15
2022/01/08 04:51:53;;;;;;;0.30;0.30;;;18.70;36.30;;;;;;5149062;27;47115;-15
2022/01/08 04:54:21;;;;;;;0.30;0.30;;;18.70;36.30;;;;;;5149600;27;47149;-15
2022/01/08 04:56:48;;;;;;;0.40;0.30;;;18.60;36.40;;;;;;5148828;27;46808;-15
2022/01/08 04:59:15;;;;;;;0.52;0.30;;;18.60;36.50;;;;;;5148921;27;46742;-16
2022/01/08 05:01:42;;;;;;;0.30;0.30;;;18.50;36.60;;;;;;5149091;27;46945;-14
2022/01/08 05:04:09;;;;;;;0.25;0.25;;;18.50;36.70;;;;;;5149535;27;47260;-15
2022/01/08 05:06:36;;;;;;;0.30;0.30;;;18.50;36.80;;;;;;5149016;27;47918;-14
2022/01/08 05:09:03;;;;;;;0.20;0.20;;;18.50;36.90;;;;;;5149027;27;47093;-15
2022/01/08 05:11:31;;;;;;;0.30;0.30;;;18.40;36.90;;;;;;5148721;27;46873;-15
2022/01/08 05:13:58;;;;;;;0.30;0.30;;;18.40;37.00;;;;;;5148496;27;46920;-15
2022/01/08 05:16:26;;;;;;;0.73;0.40;;;18.30;37.10;;;;;;5148841;27;48822;-14
2022/01/08 05:18:54;;;;;;;0.20;0.20;;;18.30;37.20;;;;;;5148627;27;46895;-17
2022/01/08 05:21:24;;;;;;;0.30;0.30;;;18.30;37.30;;;;;;5148569;27;46735;-15
2022/01/08 05:23:51;;;;;;;0.30;0.30;;;18.20;37.30;;;;;;5149215;27;46894;-14
2022/01/08 05:26:18;;;;;;;0.32;0.32;;;18.10;37.40;;;;;;5147900;27;46857;-14
2022/01/08 05:28:46;;;;;;;0.20;0.20;;;18.10;37.50;;;;;;5148408;27;46749;-15
2022/01/08 05:31:15;;;;;;;0.20;0.20;;;18.20;37.40;;;;;;5148640;27;46911;-15
2022/01/08 05:33:41;;;;;;;0.73;0.20;;;18.30;37.40;;;;;;5149025;27;47270;-14
2022/01/08 05:36:08;;;;;;;0.17;0.17;;;18.40;37.20;;;;;;5148392;27;49045;-14
2022/01/08 05:38:35;;;;;;;0.90;0.30;;;18.50;37.00;;;;;;5148613;27;46837;-15
2022/01/08 05:41:02;;;;;;;0.40;0.40;;;18.60;36.70;;;;;;5148202;27;46807;-14
2022/01/08 05:43:28;;;;;;;0.35;0.35;;;18.70;36.50;;;;;;5148389;27;47068;-14
2022/01/08 05:45:57;;;;;;;0.30;0.30;;;18.80;36.30;;;;;;5148467;27;48842;-14
2022/01/08 05:48:24;;;;;;;0.25;0.20;;;18.80;36.20;;;;;;5148075;27;47421;-15
2022/01/08 05:50:50;;;;;;;0.20;0.20;;;18.90;36.10;;;;;;5148371;27;46869;-15
2022/01/08 05:53:17;;;;;;;0.38;0.28;;;18.90;36.10;;;;;;5148676;27;47286;-14
2022/01/08 05:55:44;;;;;;;0.28;0.28;;;18.90;36.00;;;;;;5147984;27;46902;-14
2022/01/08 05:58:10;;;;;;;0.38;0.38;;;18.90;36.00;;;;;;5148245;27;47400;-14
2022/01/08 06:00:37;;;;;;;0.28;0.28;;;18.90;36.00;;;;;;5148119;27;46936;-14
2022/01/08 06:03:05;;;;;;;0.20;0.20;;;18.90;36.00;;;;;;5148470;27;47009;-14
2022/01/08 06:05:32;;;;;;;0.20;0.20;;;18.90;36.00;;;;;;5147908;27;48871;-15
2022/01/08 06:07:59;;;;;;;0.20;0.20;;;18.90;36.10;;;;;;5148065;27;46837;-15
2022/01/08 06:10:25;;;;;;;0.28;0.20;;;18.80;36.00;;;;;;5147695;27;46955;-15
2022/01/08 06:12:53;;;;;;;0.32;0.32;;;18.80;36.20;;;;;;5148174;27;47053;-15
2022/01/08 06:15:19;;;;;;;0.22;0.22;;;18.70;36.20;;;;;;5147973;27;48109;-14
2022/01/08 06:17:46;;;;;;;0.10;0.10;;;18.70;36.20;;;;;;5148019;27;47556;-14
2022/01/08 06:20:14;;;;;;;0.40;0.40;;;18.70;36.30;;;;;;5147490;27;46934;-15
2022/01/08 06:22:41;;;;;;;0.32;0.32;;;18.60;36.30;;;;;;5147988;27;47088;-15
2022/01/08 06:25:08;;;;;;;0.22;0.22;;;18.60;36.40;;;;;;5147465;27;48005;-15
2022/01/08 06:27:35;;;;;;;0.43;0.43;;;18.60;36.60;;;;;;5147023;27;46969;-15
2022/01/08 06:30:03;;;;;;;0.43;0.20;;;18.50;36.50;;;;;;5147685;27;46878;-15
2022/01/08 06:32:29;;;;;;;0.28;0.28;;;18.50;36.60;;;;;;5147793;27;46886;-15
2022/01/08 06:34:56;;;;;;;0.20;0.20;;;18.50;36.70;;;;;;5147357;27;47832;-15
2022/01/08 06:37:24;;;;;;;0.22;0.22;;;18.40;36.80;;;;;;5147840;27;47009;-16
2022/01/08 06:39:51;;;;;;;0.50;0.50;;;18.40;36.80;;;;;;5147654;27;46788;-15
2022/01/08 06:42:17;;;;;;;0.40;0.30;;;18.30;36.90;;;;;;5147548;27;47280;-15
2022/01/08 06:44:44;;;;;;;0.20;0.20;;;18.30;37.00;;;;;;5147563;27;48098;-14
2022/01/08 06:47:11;;;;;;;0.30;0.30;;;18.30;37.10;;;;;;5147454;27;46971;-14
2022/01/08 06:49:38;;;;;;;0.25;0.25;;;18.20;37.10;;;;;;5147288;27;46888;-14
2022/01/08 06:52:05;;;;;;;0.20;0.20;;;18.20;37.20;;;;;;5147722;27;47300;-14
2022/01/08 06:54:33;;;;;;;0.30;0.28;;;18.10;37.20;;;;;;5147472;27;47695;-16
2022/01/08 06:56:59;;;;;;;0.30;0.30;;;18.20;37.20;;;;;;5147102;27;47294;-14
2022/01/08 06:59:26;;;;;;;0.30;0.30;;;18.30;37.10;;;;;;5147139;27;47003;-15
2022/01/08 07:01:53;;;;;;;0.30;0.30;;;18.40;36.80;;;;;;5147435;27;46813;-15
2022/01/08 07:04:19;;;;;;;0.30;0.30;;;18.50;36.50;;;;;;5147028;27;47750;-15
2022/01/08 07:06:46;;;;;;;0.20;0.20;;;18.60;36.40;;;;;;5146832;27;47041;-14
2022/01/08 07:09:13;;;;;;;0.30;0.30;;;18.60;36.20;;;;;;5147286;27;46791;-15
2022/01/08 07:11:41;;;;;;;0.20;0.20;;;18.70;36.10;;;;;;5147358;27;47275;-15
2022/01/08 07:14:08;;;;;;;1.02;0.20;;;18.80;35.90;;;;;;5146979;27;47966;-16
2022/01/08 07:16:35;;;;;;;0.45;0.30;;;18.90;35.70;;;;;;5146783;27;47008;-14
2022/01/08 07:19:01;;;;;;;0.25;0.25;;;19.00;35.60;;;;;;5147217;27;46883;-14
2022/01/08 07:21:28;;;;;;;0.28;0.28;;;19.00;35.50;;;;;;5147092;27;47350;-15
2022/01/08 07:23:56;;;;;;;0.25;0.25;;;19.10;35.50;;;;;;5147065;27;48152;-14
2022/01/08 07:26:22;;;;;;;0.30;0.30;;;19.10;35.40;;;;;;5146244;27;46917;-15
2022/01/08 07:28:50;;;;;;;0.90;0.30;;;19.10;35.40;;;;;;5146769;27;46865;-16
2022/01/08 07:31:17;;;;;;;0.30;0.30;;;19.10;35.40;;;;;;5147027;27;47113;-14
2022/01/08 07:33:49;;;;;;;0.30;0.30;;;19.00;35.40;;;;;;5146853;27;48106;-14
2022/01/08 07:36:16;;;;;;;0.63;0.30;;;19.00;35.40;;;;;;5146862;27;46888;-15
2022/01/08 07:38:42;;;;;;;0.57;0.30;;;19.00;35.50;;;;;;5149590;27;46811;-15
2022/01/08 07:41:09;;;;;;;0.20;0.20;;;19.00;35.50;;;;;;5150385;27;47095;-14
2022/01/08 07:43:36;;;;;;;0.32;0.32;;;18.90;35.50;;;;;;5150163;27;48749;-15
2022/01/08 07:46:04;;;;;;;0.55;0.40;;;18.80;35.50;;;;;;5150295;27;47234;-15
2022/01/08 07:48:30;;;;;;;0.30;0.30;;;18.80;35.60;;;;;;5150903;27;46841;-14
2022/01/08 07:50:58;;;;;;;0.20;0.20;;;18.70;35.60;;;;;;5149973;27;46906;-15
2022/01/08 07:53:24;;;;;;;0.43;0.40;;;18.70;35.70;;;;;;5150246;27;48213;-15
2022/01/08 07:55:51;;;;;;;0.45;0.45;;;18.70;35.90;;;;;;5150234;27;47196;-15
2022/01/08 07:58:20;;;;;;;0.43;0.43;;;18.60;35.90;;;;;;5150014;27;46897;-15
2022/01/08 08:00:47;;;;;;;0.28;0.28;;;18.60;36.00;;;;;;5150278;27;46903;-14
2022/01/08 08:03:15;;;;;;;0.20;0.20;;;18.50;36.00;;;;;;5149807;27;48841;-15
2022/01/08 08:05:42;;;;;;;0.47;0.40;;;18.50;36.10;;;;;;5150021;27;46997;-14
2022/01/08 08:08:08;;;;;;;0.40;0.40;;;18.40;36.10;;;;;;5149887;27;46829;-16
2022/01/08 08:10:35;;;;;;;0.50;0.32;;;18.30;36.20;;;;;;5150140;27;47302;-16
2022/01/08 08:13:02;;;;;;;0.30;0.30;;;18.30;36.30;;;;;;5149686;27;48754;-19
2022/01/08 08:15:28;;;;;;;0.40;0.40;;;18.30;36.40;;;;;;5149396;27;46977;-15
2022/01/08 08:17:55;;;;;;;0.47;0.47;;;18.30;36.40;;;;;;5149762;27;46891;-16
2022/01/08 08:20:23;;;;;;;0.43;0.40;;;18.40;36.30;;;;;;5149917;27;46956;-14
2022/01/08 08:22:50;;;;;;;0.50;0.50;;;18.40;36.20;;;;;;5149760;27;47865;-15
2022/01/08 08:25:17;;;;;;;0.50;0.30;;;18.50;36.10;;;;;;5149445;27;47253;-15
2022/01/08 08:27:44;;;;;;;0.30;0.30;;;18.60;36.00;;;;;;5149874;27;46884;-15
2022/01/08 08:30:11;;;;;;;0.60;0.50;;;18.70;35.70;;;;;;5149484;27;46844;-15
2022/01/08 08:32:38;;;;;;;0.30;0.30;;;18.80;35.70;;;;;;5149526;27;49046;-15
2022/01/08 08:35:05;;;;;;;0.25;0.25;;;18.80;35.60;;;;;;5149564;27;46914;-15
2022/01/08 08:37:34;;;;;;;0.55;0.55;;;18.90;35.50;;;;;;5149645;27;46950;-16
2022/01/08 08:40:01;;;;;;;0.30;0.30;;;18.90;35.30;;;;;;5149687;27;46913;-16
2022/01/08 08:42:27;;;;;;;0.40;0.40;;;19.00;35.30;;;;;;5149401;27;48792;-16
2022/01/08 08:44:54;;;;;;;0.43;0.43;;;19.00;35.40;;;;;;5149174;27;46963;-16
2022/01/08 08:47:21;;;;;;;0.68;0.50;;;19.00;35.30;;;;;;5149465;27;46877;-16
2022/01/08 08:49:47;;;;;;;0.35;0.35;;;19.00;35.40;;;;;;5148382;27;47177;-16
2022/01/08 08:52:14;;;;;;;0.38;0.30;;;19.00;35.40;;;;;;5149209;27;46899;-16
2022/01/08 08:54:43;;;;;;;0.68;0.30;;;18.90;35.40;;;;;;5149025;27;47440;-16
2022/01/08 08:57:10;;;;;;;0.40;0.40;;;18.90;35.50;;;;;;5149023;27;46938;-16
2022/01/08 08:59:37;;;;;;;0.40;0.40;;;18.90;35.50;;;;;;5149110;27;46887;-16
2022/01/08 09:02:04;;;;;;;0.35;0.35;;;18.80;35.50;;;;;;5147993;27;46955;-16
2022/01/08 09:04:31;;;;;;;0.30;0.30;;;18.80;35.60;;;;;;5148928;27;46742;-16
2022/01/08 09:06:57;;;;;;;2.50;0.40;;;18.80;35.70;;;;;;5148582;27;47044;-15
2022/01/08 09:09:24;;;;;;;0.38;0.32;;;18.80;35.90;;;;;;5149285;27;47104;-16
2022/01/08 09:11:52;;;;;;;2.53;0.50;;;18.70;36.00;;;;;;5148816;27;47842;-16
2022/01/08 09:14:19;;;;;;;4.03;0.95;;;18.60;36.20;;;;;;5148893;27;46801;-16
2022/01/08 09:16:47;;;;;;;2.40;0.70;;;18.60;36.50;;;;;;5148645;27;46903;-16
2022/01/08 09:19:14;;;;;;;1.38;0.80;;;18.60;35.40;;;;;;5149185;27;46905;-16
2022/01/08 09:21:41;;;;;;;3.83;0.77;;;18.50;34.20;;;;;;5148775;27;49018;-16
2022/01/08 09:24:08;;;;;;;1.83;0.73;;;18.40;34.00;;;;;;5148847;27;47009;-16
2022/01/08 09:26:34;;;;;;;1.48;0.80;;;18.40;34.00;;;;;;5148042;27;47132;-16
2022/01/08 09:29:02;;;;;;;4.05;0.80;;;18.40;33.70;;;;;;5148994;27;46930;-15
2022/01/08 09:31:29;;;;;;;1.77;0.90;;;18.50;33.60;;;;;;5148101;27;46892;-16
2022/01/08 09:33:56;;;;;;;0.77;0.77;;;18.50;33.60;;;;;;5148638;27;47202;-16
2022/01/08 09:36:22;;;;;;;1.02;0.70;;;18.50;32.70;;;;;;5148603;27;46906;-16
2022/01/08 09:38:49;;;;;;;1.00;0.80;;;18.50;32.40;;;;;;5148848;27;47074;-16
2022/01/08 09:41:16;;;;;;;2.47;0.82;;;18.60;32.50;;;;;;5148453;27;47843;-16
2022/01/08 09:43:42;;;;;;;2.88;1.00;;;18.70;32.20;;;;;;5148552;27;46925;-16
2022/01/08 09:46:11;;;;;;;1.10;0.88;;;18.60;32.10;;;;;;5148368;27;46875;-16
2022/01/08 09:48:37;;;;;;;1.38;0.80;;;18.70;32.10;;;;;;5148497;27;47004;-16
2022/01/08 09:51:04;;;;;;;1.23;0.75;;;18.70;32.10;;;;;;5147979;27;48039;-16
2022/01/08 09:53:31;;;;;;;1.42;0.82;;;18.70;32.10;;;;;;5148339;27;47020;-16
2022/01/08 09:55:57;;;;;;;0.93;0.73;;;18.80;32.10;;;;;;5148288;27;47099;-16
2022/01/08 09:58:24;;;;;;;0.90;0.80;;;18.80;32.00;;;;;;5148535;27;46905;-16
2022/01/08 10:00:51;;;;;;;2.08;0.77;;;18.80;31.80;;;;;;5148012;27;48202;-16
2022/01/08 10:03:20;;;;;;;0.75;0.70;;;18.90;31.90;;;;;;5147699;27;46841;-16
2022/01/08 10:05:48;;;;;;;1.10;0.80;;;18.90;31.80;;;;;;5148125;27;47077;-16
2022/01/08 10:08:15;;;;;;;1.05;0.80;;;18.90;31.70;;;;;;5148363;27;47264;-16
2022/01/08 10:10:48;;;;;;;1.20;0.70;;;19.00;31.50;;;;;;5147715;27;47063;-16
2022/01/08 10:13:22;;;;;;;1.05;0.50;;;19.00;31.40;;;;;;5147950;27;46826;-16
2022/01/08 10:18:36;;;;;;;3.22;0.63;;;19.00;31.00;;;;;;5145258;27;46902;-16
2022/01/08 10:21:16;;;;;;;3.50;0.70;;;19.00;31.10;;;;;;5147572;27;49047;-16
2022/01/08 10:23:43;;;;;;;0.63;0.60;;;19.10;30.90;;;;;;5147464;27;46967;-16
2022/01/08 10:26:10;;;;;;;1.27;0.70;;;19.10;30.90;;;;;;5147322;27;46899;-17
2022/01/08 10:28:39;;;;;;;3.05;0.90;;;19.20;30.60;;;;;;5147954;27;47141;-17
2022/01/08 10:31:12;;;;;;;0.60;0.60;;;19.20;30.70;;;;;;5147165;27;48922;-16
2022/01/08 10:33:40;;;;;;;1.55;0.80;;;19.20;30.30;;;;;;5147350;27;46840;-17
2022/01/08 10:36:07;;;;;;;0.50;0.50;;;19.10;30.30;;;;;;5147365;27;47053;-16
2022/01/08 10:38:33;;;;;;;1.25;0.75;;;19.10;30.40;;;;;;5147886;27;46983;-16
2022/01/08 10:41:03;;;;;;;2.13;0.60;;;19.10;30.50;;;;;;5147410;27;48369;-16
2022/01/08 10:43:31;;;;;;;0.80;0.65;;;19.10;30.60;;;;;;5147530;27;47081;-17
2022/01/08 10:46:10;;;;;;;0.88;0.70;;;19.20;30.60;;;;;;5147455;27;46889;-16
2022/01/08 10:48:37;;;;;;;1.15;0.50;;;19.30;30.60;;;;;;5147998;27;47101;-16
2022/01/08 10:51:13;;;;;;;1.45;0.63;;;19.30;30.40;;;;;;5147117;27;46785;-16
2022/01/08 10:54:09;;;;;;;1.23;0.60;;;19.30;30.40;;;;;;5147529;27;46805;-16
2022/01/08 10:56:37;;;;;;;1.27;0.80;;;19.30;30.50;;;;;;5147437;27;46968;-16
2022/01/08 10:59:12;;;;;;;4.03;0.75;;;19.30;30.50;;;;;;5147723;27;46992;-16
2022/01/08 11:01:40;;;;;;;3.85;0.80;;;19.40;30.50;;;;;;5146252;27;48760;-16
2022/01/08 11:04:07;;;;;;;0.57;0.57;;;19.40;30.50;;;;;;5147255;27;46849;-16
2022/01/08 11:06:38;;;;;;;2.75;1.00;;;19.50;30.40;;;;;;5147107;27;46772;-16
2022/01/08 11:09:04;;;;;;;6.45;0.60;;;19.50;30.20;;;;;;5147497;27;47354;-16
2022/01/08 11:11:32;;;;;;;2.47;0.80;;;19.50;30.10;;;;;;5146225;27;47876;-16
2022/01/08 11:14:04;;;;;;;1.23;0.80;;;19.50;30.10;;;;;;5149830;27;46949;-16
2022/01/08 11:16:31;;;;;;;1.25;0.90;;;19.60;30.00;;;;;;5150622;27;46906;-17
2022/01/08 11:18:58;;;;;;;1.67;0.68;;;19.60;30.00;;;;;;5151094;27;46913;-16
2022/01/08 11:21:25;;;;;;;1.75;0.70;;;19.60;29.70;;;;;;5150280;27;48687;-16
2022/01/08 11:23:53;;;;;;;0.60;0.60;;;19.50;29.60;;;;;;5150825;27;47261;-17
2022/01/08 11:26:20;;;;;;;0.73;0.70;;;19.60;29.80;;;;;;5150166;27;46855;-16
2022/01/08 11:28:48;;;;;;;0.60;0.60;;;19.70;29.70;;;;;;5150702;27;46874;-17
2022/01/08 11:31:14;;;;;;;0.70;0.55;;;19.70;29.40;;;;;;5150231;27;47942;-17
2022/01/08 11:33:44;;;;;;;0.63;0.60;;;19.80;29.80;;;;;;5150170;27;47402;-16
2022/01/08 11:36:13;;;;;;;1.05;0.63;;;19.80;29.40;;;;;;5150511;27;46866;-16
2022/01/08 11:38:43;;;;;;;2.58;0.88;;;19.90;29.40;;;;;;5150041;27;46979;-16
2022/01/08 11:41:11;;;;;;;2.15;0.70;;;19.80;29.20;;;;;;5150093;27;48116;-16
2022/01/08 11:43:38;;;;;;;1.15;0.73;;;19.80;29.40;;;;;;5150424;27;47451;-16
2022/01/08 11:46:05;;;;;;;0.75;0.70;;;19.70;29.50;;;;;;5150167;27;47389;-17
2022/01/08 11:48:33;;;;;;;1.08;0.60;;;19.70;29.80;;;;;;5150661;27;46862;-17
2022/01/08 11:51:01;;;;;;;1.55;0.73;;;19.70;29.80;;;;;;5150115;27;48024;-18
2022/01/08 11:53:29;;;;;;;0.93;0.73;;;19.70;30.00;;;;;;5150265;27;46898;-17
2022/01/08 11:55:56;;;;;;;5.18;0.95;;;19.70;29.60;;;;;;5150217;27;46862;-17
2022/01/08 11:58:26;;;;;;;2.15;1.00;;;19.70;29.50;;;;;;5150086;27;46925;-17
2022/01/08 12:00:55;;;;;;;1.65;0.88;;;19.70;29.60;;;;;;5149159;27;49069;-17
2022/01/08 12:03:24;;;;;;;2.15;0.85;;;19.70;29.60;;;;;;5149990;27;47443;-18
2022/01/08 12:05:51;;;;;;;0.75;0.75;;;19.70;29.40;;;;;;5149725;27;46896;-17
2022/01/08 12:08:19;;;;;;;2.83;0.82;;;19.70;29.30;;;;;;5150173;27;47376;-17
2022/01/08 12:10:55;;;;;;;1.67;0.80;;;19.70;29.30;;;;;;5149678;27;47929;-18
2022/01/08 12:13:42;;;;;;;4.60;0.90;;;19.60;29.30;;;;;;5149512;27;46840;-18
2022/01/08 12:16:24;;;;;;;1.05;0.77;;;19.60;29.40;;;;;;5149692;27;46992;-17
2022/01/08 12:18:54;;;;;;;1.05;0.57;;;19.60;29.30;;;;;;5149393;27;47304;-17
2022/01/08 12:21:31;;;;;;;0.95;0.47;;;19.60;29.20;;;;;;5149616;27;47040;-17
2022/01/08 12:23:59;;;;;;;0.55;0.50;;;19.70;29.20;;;;;;5148294;27;47531;-17
2022/01/08 12:26:36;;;;;;;1.65;0.50;;;19.70;29.30;;;;;;5149003;27;46902;-17
2022/01/08 12:29:04;;;;;;;0.77;0.60;;;19.70;29.20;;;;;;5149601;27;47147;-17
2022/01/08 12:31:42;;;;;;;1.83;0.65;;;19.70;29.20;;;;;;5149426;27;46964;-17
2022/01/08 12:34:24;;;;;;;0.93;0.60;;;19.60;29.00;;;;;;5149449;27;46969;-17
2022/01/08 12:36:52;;;;;;;4.53;0.90;;;19.70;29.30;;;;;;5149201;27;46853;-18
2022/01/08 12:39:23;;;;;;;6.85;1.00;;;19.80;29.10;;;;;;5149603;27;46982;-17
2022/01/08 12:41:50;;;;;;;9.52;1.00;;;19.80;29.00;;;;;;5149615;27;48881;-17
2022/01/08 12:44:27;;;;;;;7.18;1.98;;;19.80;29.10;;;;;;5149589;27;47018;-17
2022/01/08 12:46:54;;;;;;;8.93;1.73;;;19.80;29.10;;;;;;5149178;27;46968;-17
2022/01/08 12:49:21;;;;;;;12.77;1.50;;;19.70;29.10;;;;;;5149673;27;47151;-18
2022/01/08 12:52:09;;;;;;;12.25;2.10;;;19.70;29.10;;;;;;5149027;27;46922;-17
2022/01/08 12:54:36;;;;;;;6.15;1.50;;;19.70;29.20;;;;;;5142823;27;46959;-18
2022/01/08 12:57:05;;;;;;;8.30;1.48;;;19.80;29.30;;;;;;5149163;27;47004;-17
2022/01/08 12:59:35;;;;;;;9.68;1.15;;;19.80;29.10;;;;;;5149196;27;47259;-17
2022/01/08 13:02:07;;;;;;;3.45;0.70;;;19.80;29.20;;;;;;5148649;27;46830;-17
2022/01/08 13:04:35;;;;;;;7.20;0.98;;;19.70;29.10;;;;;;5149128;27;46864;-17
2022/01/08 13:07:02;;;;;;;4.80;1.20;;;19.70;29.20;;;;;;5148640;27;46903;-17
2022/01/08 13:09:29;;;;;;;9.27;1.35;;;19.80;29.40;;;;;;5149123;27;46844;-17